Time;durP1;ratioP1;P1;durP2;ratioP2;P2;SDS_P1;SDS_P2;PMS_P1;PMS_P2;Temp;Humidity;BMP_temperature;BMP_pressure;BME280_temperature;BME280_humidity;BME280_pressure;Samples;Min_cycle;Max_cycle;Signal;HPM_P1;HPM_P2
2022/01/20 00:02:20;;;;;;;5.95;1.63;;;;;;;;;;5014586;28;20113;-61
2022/01/20 00:04:52;;;;;;;4.32;1.20;;;;;;;;;;5015159;28;20033;-60
2022/01/20 00:07:33;;;;;;;2.73;1.20;;;;;;;;;;5015075;28;20084;-61
2022/01/20 00:23:09;;;;;;;5.43;1.75;;;;;;;;;;5013610;28;20116;-61
2022/01/20 00:26:11;;;;;;;4.82;1.40;;;;;;;;;;5005143;28;20081;-61
2022/01/20 00:28:47;;;;;;;4.80;1.40;;;;;;;;;;5005032;28;20030;-61
2022/01/20 00:33:46;;;;;;;4.72;1.50;;;;;;;;;;4995022;28;20042;-60
2022/01/20 00:38:42;;;;;;;4.40;1.48;;;;;;;;;;4995127;28;20034;-61
2022/01/20 00:41:14;;;;;;;6.72;1.45;;;;;;;;;;4994199;28;20019;-61
2022/01/20 00:43:40;;;;;;;4.45;1.52;;;;;;;;;;5011770;28;20204;-59
2022/01/20 00:46:06;;;;;;;5.03;1.30;;;;;;;;;;4983235;28;20026;-61
2022/01/20 00:48:32;;;;;;;4.68;1.60;;;;;;;;;;4993746;28;20049;-61
2022/01/20 00:50:58;;;;;;;5.78;1.63;;;;;;;;;;4994512;28;20077;-61
2022/01/20 00:53:24;;;;;;;3.53;1.20;;;;;;;;;;4994421;28;20096;-61
2022/01/20 00:55:50;;;;;;;4.00;1.23;;;;;;;;;;4994401;28;20029;-59
2022/01/20 00:58:16;;;;;;;3.85;1.50;;;;;;;;;;4994325;28;20027;-60
2022/01/20 01:00:43;;;;;;;4.78;1.48;;;;;;;;;;4994643;28;20030;-63
2022/01/20 01:03:09;;;;;;;3.58;1.27;;;;;;;;;;4994270;28;20050;-62
2022/01/20 01:05:42;;;;;;;4.45;1.48;;;;;;;;;;4994146;28;20061;-59
2022/01/20 01:08:09;;;;;;;6.03;1.80;;;;;;;;;;4994174;28;20031;-61
2022/01/20 01:10:37;;;;;;;6.85;1.80;;;;;;;;;;5011729;28;20025;-62
2022/01/20 01:13:09;;;;;;;6.32;1.35;;;;;;;;;;5013159;28;20060;-61
2022/01/20 01:15:41;;;;;;;4.68;1.30;;;;;;;;;;4992700;28;20401;-59
2022/01/20 01:23:27;;;;;;;5.60;1.20;;;;;;;;;;5013713;28;20030;-59
2022/01/20 01:25:55;;;;;;;3.83;1.23;;;;;;;;;;5013281;28;20096;-60
2022/01/20 01:28:24;;;;;;;3.38;1.20;;;;;;;;;;5013378;28;20022;-60
2022/01/20 01:31:28;;;;;;;6.72;1.60;;;;;;;;;;4995637;28;20026;-60
2022/01/20 01:34:08;;;;;;;3.17;1.30;;;;;;;;;;5012041;28;20111;-60
2022/01/20 01:39:33;;;;;;;5.18;1.38;;;;;;;;;;4950178;28;20044;-60
2022/01/20 01:42:00;;;;;;;4.28;1.08;;;;;;;;;;4993374;28;20029;-60
2022/01/20 01:44:29;;;;;;;5.47;1.27;;;;;;;;;;4993608;28;20034;-61
2022/01/20 01:46:56;;;;;;;5.10;1.55;;;;;;;;;;4993345;28;20034;-60
2022/01/20 01:49:22;;;;;;;4.28;1.13;;;;;;;;;;4993381;28;20094;-61
2022/01/20 01:51:49;;;;;;;5.03;1.38;;;;;;;;;;5009584;28;20126;-61
2022/01/20 01:54:16;;;;;;;4.47;1.40;;;;;;;;;;4992521;28;20489;-60
2022/01/20 01:56:42;;;;;;;3.28;1.02;;;;;;;;;;4993277;28;20462;-60
2022/01/20 01:59:08;;;;;;;3.85;1.23;;;;;;;;;;4992516;28;20058;-61
2022/01/20 02:01:37;;;;;;;4.60;1.15;;;;;;;;;;4992889;28;20066;-60
2022/01/20 02:04:15;;;;;;;3.08;1.30;;;;;;;;;;4975810;28;20034;-61
2022/01/20 02:18:36;;;;;;;4.65;1.30;;;;;;;;;;4993028;28;20162;-60
2022/01/20 02:21:02;;;;;;;7.13;1.38;;;;;;;;;;5000145;28;20032;-60
2022/01/20 02:23:28;;;;;;;5.15;1.10;;;;;;;;;;5012222;28;20029;-60
2022/01/20 02:25:54;;;;;;;7.50;1.48;;;;;;;;;;5007822;28;20045;-60
2022/01/20 02:28:20;;;;;;;5.25;1.30;;;;;;;;;;5007829;28;20157;-60
2022/01/20 02:30:46;;;;;;;6.97;1.33;;;;;;;;;;5011826;28;20030;-60
2022/01/20 02:33:14;;;;;;;5.63;1.45;;;;;;;;;;5012317;28;20037;-60
2022/01/20 02:35:43;;;;;;;5.80;1.27;;;;;;;;;;5012375;28;20025;-60
2022/01/20 02:45:48;;;;;;;5.43;1.33;;;;;;;;;;5012005;28;20056;-60
2022/01/20 02:48:14;;;;;;;5.28;1.42;;;;;;;;;;5012600;28;20058;-60
2022/01/20 02:50:40;;;;;;;6.05;1.67;;;;;;;;;;4994715;28;20084;-60
2022/01/20 02:53:06;;;;;;;4.78;1.35;;;;;;;;;;5012222;28;20038;-60
2022/01/20 02:55:32;;;;;;;6.00;1.20;;;;;;;;;;5012235;28;20101;-60
2022/01/20 02:57:58;;;;;;;9.23;1.92;;;;;;;;;;4994540;28;20116;-60
2022/01/20 03:00:27;;;;;;;5.25;1.70;;;;;;;;;;5011161;28;20444;-60
2022/01/20 03:02:55;;;;;;;8.07;1.75;;;;;;;;;;5008544;28;20042;-60
2022/01/20 03:05:21;;;;;;;6.25;1.33;;;;;;;;;;4994195;28;20723;-60
2022/01/20 03:07:47;;;;;;;3.33;1.30;;;;;;;;;;4996167;28;20113;-61
2022/01/20 03:10:13;;;;;;;5.78;1.58;;;;;;;;;;4993480;28;20076;-60
2022/01/20 03:12:39;;;;;;;4.50;1.58;;;;;;;;;;5015232;28;20050;-60
2022/01/20 03:15:05;;;;;;;4.47;1.80;;;;;;;;;;5015828;28;20373;-60
2022/01/20 03:17:32;;;;;;;5.25;1.40;;;;;;;;;;5015665;28;20030;-61
2022/01/20 03:19:58;;;;;;;9.13;1.70;;;;;;;;;;5016042;28;20030;-60
2022/01/20 03:22:24;;;;;;;4.55;1.55;;;;;;;;;;5015518;28;20377;-60
2022/01/20 03:24:50;;;;;;;5.95;1.30;;;;;;;;;;5018852;28;20029;-61
2022/01/20 03:27:16;;;;;;;4.72;1.45;;;;;;;;;;5035514;28;20022;-61
2022/01/20 03:29:42;;;;;;;3.67;1.35;;;;;;;;;;5035275;28;20028;-63
2022/01/20 03:32:08;;;;;;;7.53;1.50;;;;;;;;;;5035031;28;20156;-62
2022/01/20 03:34:34;;;;;;;11.43;1.92;;;;;;;;;;5035347;28;20048;-61
2022/01/20 03:37:03;;;;;;;16.83;1.83;;;;;;;;;;5021145;28;20401;-61
2022/01/20 03:39:29;;;;;;;29.20;2.53;;;;;;;;;;5015365;28;20022;-61
2022/01/20 03:41:55;;;;;;;12.35;1.50;;;;;;;;;;5015169;28;20072;-61
2022/01/20 03:44:21;;;;;;;8.82;1.55;;;;;;;;;;5005702;28;20029;-60
2022/01/20 03:46:47;;;;;;;7.63;1.80;;;;;;;;;;5023059;28;20041;-61
2022/01/20 03:51:52;;;;;;;9.23;1.67;;;;;;;;;;5022486;28;20053;-60
2022/01/20 03:54:18;;;;;;;9.00;1.40;;;;;;;;;;5022741;28;20480;-60
2022/01/20 03:56:44;;;;;;;7.90;1.40;;;;;;;;;;5008043;28;20445;-60
2022/01/20 03:59:10;;;;;;;7.68;1.60;;;;;;;;;;5025518;28;20036;-60
2022/01/20 04:01:36;;;;;;;4.82;1.70;;;;;;;;;;5021734;28;20025;-61
2022/01/20 04:04:02;;;;;;;9.13;1.55;;;;;;;;;;5016711;28;20033;-62
2022/01/20 04:06:28;;;;;;;8.27;1.50;;;;;;;;;;5015039;28;20037;-61
2022/01/20 04:08:54;;;;;;;7.75;1.85;;;;;;;;;;4997326;28;20357;-61
2022/01/20 04:11:22;;;;;;;10.10;1.55;;;;;;;;;;5014654;28;20088;-63
2022/01/20 04:13:48;;;;;;;5.05;1.60;;;;;;;;;;5014255;28;20054;-62
2022/01/20 04:16:18;;;;;;;4.93;1.20;;;;;;;;;;5014153;28;20026;-62
2022/01/20 04:18:52;;;;;;;9.48;1.27;;;;;;;;;;5014643;28;20429;-61
2022/01/20 04:21:21;;;;;;;5.40;1.65;;;;;;;;;;5014540;28;20025;-62
2022/01/20 04:23:47;;;;;;;9.13;1.30;;;;;;;;;;4996988;28;20029;-62
2022/01/20 04:26:13;;;;;;;5.63;1.52;;;;;;;;;;4996937;28;20022;-62
2022/01/20 04:28:39;;;;;;;12.95;1.52;;;;;;;;;;5014366;28;20034;-62
2022/01/20 04:31:05;;;;;;;5.45;1.33;;;;;;;;;;5014630;28;20112;-62
2022/01/20 04:33:31;;;;;;;3.70;1.20;;;;;;;;;;5014348;28;20108;-62
2022/01/20 04:35:58;;;;;;;6.93;1.52;;;;;;;;;;5013529;28;20033;-62
2022/01/20 04:38:24;;;;;;;14.77;1.70;;;;;;;;;;5006576;28;20041;-62
2022/01/20 04:40:50;;;;;;;7.13;1.42;;;;;;;;;;4977113;28;20023;-62
2022/01/20 04:43:16;;;;;;;4.35;1.13;;;;;;;;;;4994453;28;20026;-62
2022/01/20 04:45:50;;;;;;;5.38;1.40;;;;;;;;;;4977182;28;20033;-62
2022/01/20 04:58:59;;;;;;;8.00;1.23;;;;;;;;;;5014197;28;20444;-62
2022/01/20 05:01:25;;;;;;;11.35;1.38;;;;;;;;;;4995929;28;20469;-62
2022/01/20 05:03:51;;;;;;;15.30;1.13;;;;;;;;;;4996113;28;20065;-62
2022/01/20 05:06:16;;;;;;;4.75;1.40;;;;;;;;;;5013223;28;20056;-62
2022/01/20 05:08:42;;;;;;;3.22;1.10;;;;;;;;;;5008923;28;20425;-62
2022/01/20 05:11:10;;;;;;;4.90;1.50;;;;;;;;;;5000176;28;20030;-62
2022/01/20 05:13:40;;;;;;;4.72;1.13;;;;;;;;;;4997926;28;20496;-62
2022/01/20 05:16:06;;;;;;;2.75;1.10;;;;;;;;;;5013469;28;20366;-62
2022/01/20 05:18:32;;;;;;;5.43;1.17;;;;;;;;;;5013358;28;20036;-62
2022/01/20 05:20:58;;;;;;;3.67;1.20;;;;;;;;;;5013367;28;20018;-61
2022/01/20 05:23:24;;;;;;;9.52;1.27;;;;;;;;;;5013299;28;20738;-64
2022/01/20 05:25:50;;;;;;;8.70;1.63;;;;;;;;;;4984637;28;20026;-62
2022/01/20 05:28:16;;;;;;;7.72;1.35;;;;;;;;;;4993063;28;20109;-62
2022/01/20 05:30:42;;;;;;;7.20;1.30;;;;;;;;;;4995512;28;20797;-62
2022/01/20 05:33:09;;;;;;;5.60;1.17;;;;;;;;;;4989964;28;20378;-62
2022/01/20 05:35:35;;;;;;;4.50;1.17;;;;;;;;;;4993737;28;20087;-62
2022/01/20 05:38:01;;;;;;;4.82;1.17;;;;;;;;;;4993393;28;20109;-61
2022/01/20 05:40:26;;;;;;;6.88;1.20;;;;;;;;;;4993843;28;20031;-62
2022/01/20 05:42:53;;;;;;;3.28;1.08;;;;;;;;;;4993360;28;20065;-63
2022/01/20 05:45:19;;;;;;;3.70;1.23;;;;;;;;;;4993567;28;20030;-62
2022/01/20 05:47:47;;;;;;;3.83;1.33;;;;;;;;;;4993241;28;20478;-62
2022/01/20 05:50:20;;;;;;;7.07;1.30;;;;;;;;;;4976041;28;20533;-62
2022/01/20 05:52:46;;;;;;;4.60;1.10;;;;;;;;;;4993261;28;20026;-62
2022/01/20 05:55:13;;;;;;;6.15;1.40;;;;;;;;;;4993458;28;20034;-62
2022/01/20 05:57:40;;;;;;;3.78;1.05;;;;;;;;;;4993325;28;20084;-63
2022/01/20 06:00:07;;;;;;;3.10;1.10;;;;;;;;;;4993367;28;20022;-61
2022/01/20 06:02:36;;;;;;;5.00;1.45;;;;;;;;;;4992943;28;20030;-63
2022/01/20 06:05:04;;;;;;;4.18;1.17;;;;;;;;;;4993515;28;20030;-61
2022/01/20 06:07:30;;;;;;;2.15;1.00;;;;;;;;;;5009495;28;20108;-61
2022/01/20 06:09:56;;;;;;;4.13;1.08;;;;;;;;;;5005937;28;20171;-63
2022/01/20 06:12:22;;;;;;;2.45;1.05;;;;;;;;;;5012010;28;20022;-61
2022/01/20 06:14:47;;;;;;;4.57;1.38;;;;;;;;;;5012369;28;20046;-62
2022/01/20 06:17:13;;;;;;;3.83;1.00;;;;;;;;;;5028691;28;20040;-61
2022/01/20 06:19:39;;;;;;;5.53;1.50;;;;;;;;;;5032440;28;20021;-61
2022/01/20 06:22:05;;;;;;;5.75;1.17;;;;;;;;;;5021747;28;20029;-62
2022/01/20 06:24:31;;;;;;;9.05;1.15;;;;;;;;;;5010790;28;20030;-62
2022/01/20 06:26:57;;;;;;;5.13;0.90;;;;;;;;;;5005035;28;20045;-63
2022/01/20 06:29:25;;;;;;;7.20;1.40;;;;;;;;;;5012628;28;20030;-63
2022/01/20 06:31:51;;;;;;;13.93;1.60;;;;;;;;;;5012231;28;20026;-64
2022/01/20 06:34:17;;;;;;;16.02;1.55;;;;;;;;;;5012586;28;20049;-64
2022/01/20 06:36:43;;;;;;;19.30;1.80;;;;;;;;;;4995002;28;20030;-62
2022/01/20 06:39:09;;;;;;;29.95;1.80;;;;;;;;;;5013596;28;20548;-64
2022/01/20 06:41:37;;;;;;;9.93;1.95;;;;;;;;;;5015941;28;20235;-64
2022/01/20 06:44:03;;;;;;;35.72;2.10;;;;;;;;;;4998934;28;20025;-60
2022/01/20 06:46:29;;;;;;;16.52;1.77;;;;;;;;;;5016555;28;20025;-60
2022/01/20 06:48:55;;;;;;;21.35;2.38;;;;;;;;;;5016168;28;20488;-60
2022/01/20 06:51:21;;;;;;;16.10;2.38;;;;;;;;;;5016306;28;20385;-61
2022/01/20 06:53:47;;;;;;;18.98;2.20;;;;;;;;;;5016250;28;20121;-59
2022/01/20 06:56:13;;;;;;;18.63;1.95;;;;;;;;;;5015590;28;20022;-60
2022/01/20 06:58:39;;;;;;;12.20;1.52;;;;;;;;;;5014479;28;20037;-60
2022/01/20 07:01:05;;;;;;;19.23;2.33;;;;;;;;;;4996335;28;20022;-62
2022/01/20 07:03:31;;;;;;;17.33;1.60;;;;;;;;;;5000895;28;20033;-62
2022/01/20 07:05:57;;;;;;;16.58;1.92;;;;;;;;;;5011426;28;20096;-63
2022/01/20 07:08:23;;;;;;;15.93;1.90;;;;;;;;;;5015788;28;20076;-62
2022/01/20 07:10:49;;;;;;;19.25;1.65;;;;;;;;;;5015663;28;20029;-62
2022/01/20 07:13:15;;;;;;;9.15;1.50;;;;;;;;;;4996873;28;20054;-62
2022/01/20 07:15:41;;;;;;;17.40;1.50;;;;;;;;;;5014769;28;20108;-62
2022/01/20 07:18:07;;;;;;;35.20;1.85;;;;;;;;;;4997507;28;20117;-62
2022/01/20 07:20:33;;;;;;;8.55;1.65;;;;;;;;;;5015728;28;20046;-62
2022/01/20 07:22:59;;;;;;;10.25;1.60;;;;;;;;;;5015436;28;20439;-63
2022/01/20 07:25:25;;;;;;;8.82;1.52;;;;;;;;;;5015234;28;20462;-65
2022/01/20 07:27:51;;;;;;;9.18;1.50;;;;;;;;;;5015445;28;20026;-62
2022/01/20 07:30:17;;;;;;;11.85;2.03;;;;;;;;;;5015365;28;20030;-62
2022/01/20 07:32:43;;;;;;;10.57;1.45;;;;;;;;;;5013249;28;20113;-62
2022/01/20 07:35:09;;;;;;;4.18;1.20;;;;;;;;;;4995729;28;20026;-63
2022/01/20 07:37:35;;;;;;;13.65;1.60;;;;;;;;;;4995641;28;20466;-63
2022/01/20 07:40:01;;;;;;;8.90;1.58;;;;;;;;;;4995742;28;20022;-64
2022/01/20 07:42:27;;;;;;;13.32;1.70;;;;;;;;;;5009645;28;20117;-61
2022/01/20 07:44:53;;;;;;;10.82;1.55;;;;;;;;;;5015294;28;20116;-60
2022/01/20 07:47:19;;;;;;;10.20;1.58;;;;;;;;;;5015215;28;20034;-61
2022/01/20 07:49:45;;;;;;;5.75;1.20;;;;;;;;;;5011621;28;20038;-61
2022/01/20 07:52:12;;;;;;;6.20;1.40;;;;;;;;;;5005762;28;20030;-61
2022/01/20 07:54:38;;;;;;;6.55;1.20;;;;;;;;;;5012805;28;20026;-60
2022/01/20 07:57:05;;;;;;;3.95;1.20;;;;;;;;;;5008063;28;20034;-62
2022/01/20 07:59:31;;;;;;;6.80;1.30;;;;;;;;;;5014944;28;20025;-62
2022/01/20 08:01:57;;;;;;;4.13;1.27;;;;;;;;;;5014810;28;20030;-61
2022/01/20 08:04:23;;;;;;;7.70;1.85;;;;;;;;;;4996982;28;20069;-60
2022/01/20 08:06:49;;;;;;;6.18;1.40;;;;;;;;;;5014742;28;20080;-60
2022/01/20 08:09:15;;;;;;;4.22;1.23;;;;;;;;;;4996893;28;20018;-59
2022/01/20 08:11:41;;;;;;;5.97;1.30;;;;;;;;;;5014530;28;20040;-60
2022/01/20 08:14:08;;;;;;;6.68;1.40;;;;;;;;;;5014325;28;20054;-60
2022/01/20 08:16:34;;;;;;;7.07;1.40;;;;;;;;;;5012813;28;20495;-60
2022/01/20 08:19:00;;;;;;;4.25;1.50;;;;;;;;;;5014649;28;20021;-61
2022/01/20 08:21:26;;;;;;;8.90;1.65;;;;;;;;;;5014969;28;20062;-60
2022/01/20 08:23:52;;;;;;;4.47;1.23;;;;;;;;;;5014382;28;20033;-60
2022/01/20 08:26:18;;;;;;;5.13;1.30;;;;;;;;;;4993536;28;20473;-61
2022/01/20 08:28:44;;;;;;;4.10;1.20;;;;;;;;;;5014973;28;20033;-61
2022/01/20 08:31:12;;;;;;;4.88;1.25;;;;;;;;;;4996951;28;20030;-61
2022/01/20 08:33:38;;;;;;;5.80;1.35;;;;;;;;;;5005451;28;20543;-62
2022/01/20 08:36:04;;;;;;;5.15;1.10;;;;;;;;;;5014403;28;20026;-60
2022/01/20 08:38:30;;;;;;;4.88;1.17;;;;;;;;;;5014296;28;20037;-61
2022/01/20 08:40:57;;;;;;;5.03;1.35;;;;;;;;;;5014316;28;20022;-61
2022/01/20 08:43:23;;;;;;;5.85;1.73;;;;;;;;;;5014540;28;20393;-58
2022/01/20 08:45:49;;;;;;;3.15;1.25;;;;;;;;;;5026112;28;20029;-59
2022/01/20 08:48:15;;;;;;;5.43;1.23;;;;;;;;;;5016288;28;20072;-62
2022/01/20 08:50:42;;;;;;;10.88;1.40;;;;;;;;;;5034060;28;20480;-61
2022/01/20 08:53:09;;;;;;;5.22;1.15;;;;;;;;;;5033796;28;20488;-61
2022/01/20 08:55:36;;;;;;;3.60;1.10;;;;;;;;;;5033480;28;20654;-61
2022/01/20 08:58:03;;;;;;;4.05;1.25;;;;;;;;;;5025762;28;20041;-61
2022/01/20 09:00:31;;;;;;;3.97;1.20;;;;;;;;;;5023960;28;20112;-59
2022/01/20 09:02:57;;;;;;;4.22;1.27;;;;;;;;;;5002614;28;20053;-60
2022/01/20 09:05:24;;;;;;;7.18;1.38;;;;;;;;;;5001194;28;20045;-61
2022/01/20 09:07:50;;;;;;;3.75;1.30;;;;;;;;;;5023734;28;20018;-62
2022/01/20 09:10:20;;;;;;;4.22;1.40;;;;;;;;;;5015960;28;20023;-62
2022/01/20 09:15:33;;;;;;;5.57;1.35;;;;;;;;;;5026168;28;20138;-61
2022/01/20 09:18:01;;;;;;;4.45;1.27;;;;;;;;;;5000696;28;20117;-61
2022/01/20 09:20:28;;;;;;;5.10;1.13;;;;;;;;;;4994719;28;20040;-60
2022/01/20 09:22:55;;;;;;;2.65;0.98;;;;;;;;;;5022918;28;20028;-61
2022/01/20 09:25:21;;;;;;;3.80;1.15;;;;;;;;;;4989271;28;20061;-60
2022/01/20 09:27:48;;;;;;;2.80;1.00;;;;;;;;;;4985520;28;20532;-61
2022/01/20 09:30:18;;;;;;;2.65;0.93;;;;;;;;;;5008287;28;20026;-61
2022/01/20 09:32:53;;;;;;;3.72;1.38;;;;;;;;;;5010680;28;20054;-60
2022/01/20 09:35:19;;;;;;;3.00;1.02;;;;;;;;;;5008023;28;20036;-61
2022/01/20 09:37:46;;;;;;;5.45;1.02;;;;;;;;;;4985754;28;20037;-61
2022/01/20 09:40:12;;;;;;;2.80;1.30;;;;;;;;;;5003689;28;20073;-60
2022/01/20 09:42:39;;;;;;;5.28;1.15;;;;;;;;;;5002094;28;20030;-60
2022/01/20 09:45:05;;;;;;;3.67;1.15;;;;;;;;;;5007424;28;20037;-60
2022/01/20 09:47:31;;;;;;;5.47;1.10;;;;;;;;;;5005276;28;20023;-60
2022/01/20 09:49:57;;;;;;;3.45;1.20;;;;;;;;;;4990529;28;20018;-60
2022/01/20 09:52:25;;;;;;;3.95;1.20;;;;;;;;;;5005767;28;20037;-60
2022/01/20 09:54:50;;;;;;;2.78;1.08;;;;;;;;;;5001578;28;20039;-60
2022/01/20 09:57:16;;;;;;;2.25;1.05;;;;;;;;;;5006466;28;20014;-60
2022/01/20 09:59:42;;;;;;;3.38;1.00;;;;;;;;;;4999588;28;20026;-59
2022/01/20 10:02:09;;;;;;;2.50;1.10;;;;;;;;;;5006885;28;20052;-60
2022/01/20 10:04:36;;;;;;;2.42;1.05;;;;;;;;;;5006039;28;20072;-59
2022/01/20 10:07:03;;;;;;;6.88;1.05;;;;;;;;;;5002092;28;20025;-60
2022/01/20 10:09:38;;;;;;;5.20;1.45;;;;;;;;;;4991322;28;20018;-61
2022/01/20 10:12:06;;;;;;;6.00;1.00;;;;;;;;;;5006339;28;20398;-60
2022/01/20 10:14:59;;;;;;;2.15;0.93;;;;;;;;;;4986987;28;20050;-60
2022/01/20 10:17:28;;;;;;;6.95;1.25;;;;;;;;;;5007808;28;20050;-60
2022/01/20 10:19:57;;;;;;;3.65;1.20;;;;;;;;;;4997011;28;20124;-59
2022/01/20 10:22:23;;;;;;;2.47;0.98;;;;;;;;;;5010425;28;20413;-59
2022/01/20 10:24:58;;;;;;;2.53;0.95;;;;;;;;;;4994281;28;20052;-60
2022/01/20 10:27:23;;;;;;;4.57;1.40;;;;;;;;;;5012095;28;20022;-59
2022/01/20 10:29:59;;;;;;;4.07;1.25;;;;;;;;;;5012394;28;20033;-59
2022/01/20 10:32:26;;;;;;;2.22;0.90;;;;;;;;;;5012033;28;20026;-58
2022/01/20 10:35:02;;;;;;;2.45;0.90;;;;;;;;;;5012346;28;20113;-59
2022/01/20 10:37:28;;;;;;;4.07;1.17;;;;;;;;;;5012097;28;20022;-59
2022/01/20 10:40:03;;;;;;;3.45;1.20;;;;;;;;;;5012529;28;20037;-59
2022/01/20 10:42:35;;;;;;;4.68;1.48;;;;;;;;;;5011965;28;20030;-59
2022/01/20 10:45:01;;;;;;;3.25;1.08;;;;;;;;;;5012143;28;20019;-60
2022/01/20 10:47:28;;;;;;;2.65;0.98;;;;;;;;;;5011814;28;20025;-59
2022/01/20 10:49:55;;;;;;;5.43;1.17;;;;;;;;;;5017770;28;20029;-61
2022/01/20 10:52:22;;;;;;;4.53;1.10;;;;;;;;;;5031084;28;20061;-61
2022/01/20 10:54:49;;;;;;;2.10;1.00;;;;;;;;;;5032116;28;20045;-60
2022/01/20 10:57:16;;;;;;;5.32;1.65;;;;;;;;;;5031423;28;20017;-60
2022/01/20 10:59:53;;;;;;;4.82;1.50;;;;;;;;;;5028853;28;20022;-60
2022/01/20 11:02:20;;;;;;;3.33;1.20;;;;;;;;;;5010603;28;20767;-63
2022/01/20 11:04:46;;;;;;;1.75;0.90;;;;;;;;;;5011461;28;20022;-61
2022/01/20 11:07:12;;;;;;;2.22;1.00;;;;;;;;;;4994212;28;20144;-62
2022/01/20 11:09:42;;;;;;;3.35;1.27;;;;;;;;;;5002641;28;20014;-63
2022/01/20 11:12:10;;;;;;;5.70;1.20;;;;;;;;;;5030732;28;20044;-58
2022/01/20 11:14:36;;;;;;;3.92;1.00;;;;;;;;;;5023270;28;20099;-60
2022/01/20 11:17:04;;;;;;;3.35;1.00;;;;;;;;;;5022099;28;20038;-61
2022/01/20 11:19:36;;;;;;;2.80;0.93;;;;;;;;;;4998080;28;20426;-61
2022/01/20 11:22:20;;;;;;;4.82;1.40;;;;;;;;;;5001367;28;20041;-60
2022/01/20 11:24:56;;;;;;;3.20;1.30;;;;;;;;;;4992647;28;20030;-62
2022/01/20 11:27:22;;;;;;;2.97;1.00;;;;;;;;;;4995637;28;20038;-60
2022/01/20 11:29:50;;;;;;;2.20;1.05;;;;;;;;;;4996056;28;20089;-60
2022/01/20 11:32:23;;;;;;;3.72;1.50;;;;;;;;;;4996149;28;20034;-60
2022/01/20 11:34:49;;;;;;;;;;;;;;;;;;4996558;28;20034;-59
2022/01/20 11:37:15;;;;;;;5.38;0.95;;;;;;;;;;4989110;28;20250;-60
2022/01/20 11:39:41;;;;;;;4.97;1.33;;;;;;;;;;5015396;28;20105;-60
2022/01/20 11:42:07;;;;;;;4.25;1.40;;;;;;;;;;5014840;28;20054;-59
2022/01/20 11:44:33;;;;;;;3.13;1.05;;;;;;;;;;5001050;28;20034;-60
2022/01/20 11:47:06;;;;;;;3.00;1.00;;;;;;;;;;5005675;28;20038;-59
2022/01/20 11:49:37;;;;;;;4.15;1.05;;;;;;;;;;5014898;28;20037;-59
2022/01/20 11:52:03;;;;;;;4.07;1.25;;;;;;;;;;5005788;28;20018;-59
2022/01/20 11:54:34;;;;;;;5.07;1.23;;;;;;;;;;5002081;28;20040;-59
2022/01/20 11:57:10;;;;;;;4.13;1.05;;;;;;;;;;4995644;28;20381;-59
2022/01/20 11:59:40;;;;;;;2.85;0.93;;;;;;;;;;4995726;28;20033;-60
2022/01/20 12:02:06;;;;;;;5.32;1.50;;;;;;;;;;4995431;28;20031;-60
2022/01/20 12:04:35;;;;;;;2.90;0.90;;;;;;;;;;4995570;28;20033;-60
2022/01/20 12:07:02;;;;;;;2.42;1.08;;;;;;;;;;4995293;28;20037;-60
2022/01/20 12:09:29;;;;;;;2.90;0.90;;;;;;;;;;4986984;28;20496;-61
2022/01/20 12:11:55;;;;;;;3.55;1.10;;;;;;;;;;5014466;28;20430;-60
2022/01/20 12:14:35;;;;;;;3.50;1.13;;;;;;;;;;5014493;28;20460;-60
2022/01/20 12:17:02;;;;;;;2.72;0.95;;;;;;;;;;5006323;28;20050;-60
2022/01/20 12:19:28;;;;;;;3.70;0.98;;;;;;;;;;4996600;28;20136;-61
2022/01/20 12:21:54;;;;;;;2.28;1.17;;;;;;;;;;4998236;28;20419;-63
2022/01/20 12:24:20;;;;;;;4.70;1.65;;;;;;;;;;4995033;28;20067;-62
2022/01/20 12:26:46;;;;;;;2.78;1.05;;;;;;;;;;4995035;28;20053;-62
2022/01/20 12:29:13;;;;;;;1.98;0.93;;;;;;;;;;4994570;28;20044;-62
2022/01/20 12:31:48;;;;;;;3.38;1.20;;;;;;;;;;4976792;28;20038;-64
2022/01/20 12:34:14;;;;;;;2.58;1.08;;;;;;;;;;4993818;28;20560;-61
2022/01/20 12:36:40;;;;;;;3.63;1.05;;;;;;;;;;5006640;28;20053;-61
2022/01/20 12:39:07;;;;;;;3.50;1.20;;;;;;;;;;5013472;28;20121;-60
2022/01/20 12:41:33;;;;;;;3.03;1.30;;;;;;;;;;5014081;28;20484;-60
2022/01/20 12:44:04;;;;;;;3.83;1.00;;;;;;;;;;5013874;28;20351;-60
2022/01/20 12:46:31;;;;;;;4.05;1.00;;;;;;;;;;5013427;28;20108;-60
2022/01/20 12:48:59;;;;;;;2.67;1.00;;;;;;;;;;5013928;28;20041;-60
2022/01/20 12:51:33;;;;;;;6.78;1.17;;;;;;;;;;5013802;28;20469;-60
2022/01/20 12:54:06;;;;;;;1.63;0.88;;;;;;;;;;5013111;28;20068;-61
2022/01/20 12:56:33;;;;;;;3.97;1.13;;;;;;;;;;5014920;28;20029;-59
2022/01/20 12:59:00;;;;;;;3.20;0.98;;;;;;;;;;5033673;28;20084;-60
2022/01/20 13:01:26;;;;;;;2.92;1.35;;;;;;;;;;5033754;28;20022;-59
2022/01/20 13:03:53;;;;;;;5.10;0.90;;;;;;;;;;5033418;28;20100;-59
2022/01/20 13:06:26;;;;;;;3.30;1.05;;;;;;;;;;5012837;28;20507;-59
2022/01/20 13:08:57;;;;;;;4.38;1.15;;;;;;;;;;4995270;28;20017;-59
2022/01/20 13:11:28;;;;;;;3.95;0.93;;;;;;;;;;5013002;28;20053;-63
2022/01/20 13:13:54;;;;;;;5.63;1.10;;;;;;;;;;4991927;28;20581;-63
2022/01/20 13:16:20;;;;;;;4.53;1.27;;;;;;;;;;4987862;28;20030;-64
2022/01/20 13:18:56;;;;;;;3.38;1.15;;;;;;;;;;5006881;28;20077;-62
2022/01/20 13:21:33;;;;;;;5.63;1.00;;;;;;;;;;5012426;28;20014;-61
2022/01/20 13:24:02;;;;;;;9.73;1.05;;;;;;;;;;5005738;28;20068;-62
2022/01/20 13:26:28;;;;;;;3.05;1.08;;;;;;;;;;4999898;28;20032;-63
2022/01/20 13:29:04;;;;;;;2.95;1.00;;;;;;;;;;5005068;28;20034;-65
2022/01/20 13:31:31;;;;;;;3.85;1.20;;;;;;;;;;5012878;28;20040;-61
2022/01/20 13:34:06;;;;;;;3.38;1.40;;;;;;;;;;4996530;28;20117;-60
2022/01/20 13:36:39;;;;;;;4.25;0.88;;;;;;;;;;5012338;28;20033;-58
2022/01/20 13:39:04;;;;;;;;;;;;;;;;;;5008601;28;20398;-57
2022/01/20 13:41:30;;;;;;;2.67;0.90;;;;;;;;;;4993394;28;20384;-58
2022/01/20 13:46:44;;;;;;;2.45;1.02;;;;;;;;;;4993018;28;20069;-58
2022/01/20 13:49:12;;;;;;;3.78;1.02;;;;;;;;;;4993255;28;20023;-60
2022/01/20 13:51:38;;;;;;;6.32;1.38;;;;;;;;;;4993335;28;20027;-61
2022/01/20 13:54:05;;;;;;;21.48;1.63;;;;;;;;;;4975770;28;20038;-64
2022/01/20 13:56:31;;;;;;;12.38;1.50;;;;;;;;;;4993630;28;20109;-60
2022/01/20 13:59:10;;;;;;;25.65;1.70;;;;;;;;;;4993203;28;20109;-60
2022/01/20 14:01:36;;;;;;;17.67;1.50;;;;;;;;;;4993236;28;20037;-58
2022/01/20 14:04:02;;;;;;;12.85;1.33;;;;;;;;;;4992453;28;20031;-61
2022/01/20 14:06:28;;;;;;;14.70;1.50;;;;;;;;;;4993176;28;20080;-59
2022/01/20 14:08:55;;;;;;;9.80;1.65;;;;;;;;;;4998307;28;20022;-59
2022/01/20 14:11:21;;;;;;;7.38;1.48;;;;;;;;;;5012681;28;20022;-58
2022/01/20 14:13:48;;;;;;;13.32;1.92;;;;;;;;;;5012318;28;20050;-55
2022/01/20 14:16:14;;;;;;;21.80;1.67;;;;;;;;;;5012562;28;20088;-55
2022/01/20 14:18:45;;;;;;;14.85;1.23;;;;;;;;;;5012836;28;20029;-55
2022/01/20 14:21:14;;;;;;;13.27;1.40;;;;;;;;;;5010791;28;20373;-55
2022/01/20 14:23:40;;;;;;;10.13;1.30;;;;;;;;;;5012679;28;20482;-57
2022/01/20 14:26:08;;;;;;;6.95;1.25;;;;;;;;;;5012472;28;20370;-57
2022/01/20 14:28:34;;;;;;;7.07;1.05;;;;;;;;;;5012311;28;20105;-58
2022/01/20 14:31:00;;;;;;;10.70;1.50;;;;;;;;;;5012460;28;20053;-55
2022/01/20 14:33:26;;;;;;;27.83;1.60;;;;;;;;;;5012655;28;20030;-56
2022/01/20 14:35:52;;;;;;;13.02;1.40;;;;;;;;;;5010684;28;20462;-53
2022/01/20 14:38:18;;;;;;;15.43;1.30;;;;;;;;;;5007693;28;20034;-57
2022/01/20 14:40:44;;;;;;;8.13;1.52;;;;;;;;;;4993910;28;20026;-56
2022/01/20 14:43:10;;;;;;;6.32;1.10;;;;;;;;;;4992566;28;20462;-58
2022/01/20 14:45:36;;;;;;;6.68;1.50;;;;;;;;;;4992789;28;20050;-57
2022/01/20 14:48:02;;;;;;;6.90;1.13;;;;;;;;;;4992750;28;20361;-63
2022/01/20 14:50:28;;;;;;;8.18;1.33;;;;;;;;;;4992984;28;20026;-56
2022/01/20 14:52:55;;;;;;;7.90;1.42;;;;;;;;;;4992508;28;20030;-58
2022/01/20 14:55:21;;;;;;;6.82;1.17;;;;;;;;;;4993051;28;20113;-58
2022/01/20 14:57:47;;;;;;;4.03;1.30;;;;;;;;;;4992717;28;20101;-57
2022/01/20 15:00:17;;;;;;;6.88;1.30;;;;;;;;;;4993641;28;20092;-58
2022/01/20 15:02:46;;;;;;;4.65;1.02;;;;;;;;;;4996458;28;20038;-54
2022/01/20 15:05:12;;;;;;;8.90;0.93;;;;;;;;;;4996468;28;20494;-56
2022/01/20 15:07:38;;;;;;;5.40;1.15;;;;;;;;;;4996627;28;20034;-56
2022/01/20 15:10:05;;;;;;;4.47;0.98;;;;;;;;;;5004474;28;20029;-60
2022/01/20 15:12:32;;;;;;;5.13;0.90;;;;;;;;;;5035258;28;20021;-57
2022/01/20 15:14:58;;;;;;;6.10;1.17;;;;;;;;;;5035517;28;20053;-55
2022/01/20 15:17:24;;;;;;;3.47;1.45;;;;;;;;;;5034930;28;20021;-58
2022/01/20 15:19:50;;;;;;;5.97;1.00;;;;;;;;;;5035242;28;20038;-60
2022/01/20 15:22:16;;;;;;;11.65;1.55;;;;;;;;;;5028724;28;20033;-61
2022/01/20 15:24:42;;;;;;;9.02;1.40;;;;;;;;;;5029261;28;20029;-61
2022/01/20 15:27:08;;;;;;;16.40;1.77;;;;;;;;;;5018011;28;20037;-57
2022/01/20 15:29:34;;;;;;;12.73;1.90;;;;;;;;;;5020660;28;20030;-56
2022/01/20 15:32:00;;;;;;;16.92;1.50;;;;;;;;;;5023821;28;20056;-57
2022/01/20 15:34:26;;;;;;;14.60;1.73;;;;;;;;;;5024597;28;20084;-57
2022/01/20 15:36:54;;;;;;;13.05;1.95;;;;;;;;;;5017316;28;20635;-58
2022/01/20 15:39:21;;;;;;;6.80;1.50;;;;;;;;;;5019266;28;20030;-57
2022/01/20 15:41:47;;;;;;;9.73;1.58;;;;;;;;;;5023359;28;20018;-57
2022/01/20 15:44:13;;;;;;;8.80;1.63;;;;;;;;;;5026581;28;20091;-58
2022/01/20 15:46:39;;;;;;;6.35;1.50;;;;;;;;;;5025760;28;20022;-57
2022/01/20 15:49:07;;;;;;;5.63;1.63;;;;;;;;;;5026894;28;20026;-58